sensor_id;sensor_type;location;lat;lon;timestamp;temperature;humidity
75088;HTU21D;63664;44.868;40.600;2022-10-26T00:01:07;8.21;97.19
75088;HTU21D;63664;44.868;40.600;2022-10-26T00:03:35;8.23;97.16
75088;HTU21D;63664;44.868;40.600;2022-10-26T00:06:16;8.24;97.17
75088;HTU21D;63664;44.868;40.600;2022-10-26T00:08:43;8.27;97.13
75088;HTU21D;63664;44.868;40.600;2022-10-26T00:11:10;8.27;97.13
75088;HTU21D;63664;44.868;40.600;2022-10-26T00:13:38;8.27;97.15
75088;HTU21D;63664;44.868;40.600;2022-10-26T00:16:23;8.27;97.20
75088;HTU21D;63664;44.868;40.600;2022-10-26T00:18:50;8.28;97.16
75088;HTU21D;63664;44.868;40.600;2022-10-26T00:21:19;8.30;97.20
75088;HTU21D;63664;44.868;40.600;2022-10-26T00:23:45;8.29;97.20
75088;HTU21D;63664;44.868;40.600;2022-10-26T00:26:11;8.31;97.23
75088;HTU21D;63664;44.868;40.600;2022-10-26T00:28:37;8.31;97.23
75088;HTU21D;63664;44.868;40.600;2022-10-26T00:31:06;8.32;97.24
75088;HTU21D;63664;44.868;40.600;2022-10-26T00:33:34;8.32;97.23
75088;HTU21D;63664;44.868;40.600;2022-10-26T00:36:03;8.32;97.22
75088;HTU21D;63664;44.868;40.600;2022-10-26T00:38:30;8.32;97.23
75088;HTU21D;63664;44.868;40.600;2022-10-26T00:40:56;8.34;97.24
75088;HTU21D;63664;44.868;40.600;2022-10-26T00:45:59;8.37;97.20
75088;HTU21D;63664;44.868;40.600;2022-10-26T00:48:30;8.37;97.19
75088;HTU21D;63664;44.868;40.600;2022-10-26T00:51:03;8.37;97.16
75088;HTU21D;63664;44.868;40.600;2022-10-26T00:53:31;8.39;97.13
75088;HTU21D;63664;44.868;40.600;2022-10-26T00:55:58;8.39;97.12
75088;HTU21D;63664;44.868;40.600;2022-10-26T00:58:25;8.39;97.13
75088;HTU21D;63664;44.868;40.600;2022-10-26T01:00:52;8.39;97.14
75088;HTU21D;63664;44.868;40.600;2022-10-26T01:03:19;8.39;97.14
75088;HTU21D;63664;44.868;40.600;2022-10-26T01:05:46;8.42;97.15
75088;HTU21D;63664;44.868;40.600;2022-10-26T01:08:16;8.42;97.13
75088;HTU21D;63664;44.868;40.600;2022-10-26T01:10:43;8.41;97.13
75088;HTU21D;63664;44.868;40.600;2022-10-26T01:13:10;8.41;97.16
75088;HTU21D;63664;44.868;40.600;2022-10-26T01:35:50;8.33;97.16
75088;HTU21D;63664;44.868;40.600;2022-10-26T01:41:16;8.31;97.23
75088;HTU21D;63664;44.868;40.600;2022-10-26T01:43:55;8.30;97.26
75088;HTU21D;63664;44.868;40.600;2022-10-26T01:46:23;8.30;97.26
75088;HTU21D;63664;44.868;40.600;2022-10-26T01:48:54;8.31;97.26
75088;HTU21D;63664;44.868;40.600;2022-10-26T01:51:21;8.31;97.24
75088;HTU21D;63664;44.868;40.600;2022-10-26T01:53:47;8.28;97.10
75088;HTU21D;63664;44.868;40.600;2022-10-26T01:56:21;8.26;97.20
75088;HTU21D;63664;44.868;40.600;2022-10-26T02:01:55;8.26;97.22
75088;HTU21D;63664;44.868;40.600;2022-10-26T02:07:33;8.22;97.25
75088;HTU21D;63664;44.868;40.600;2022-10-26T02:10:26;8.20;97.27
75088;HTU21D;63664;44.868;40.600;2022-10-26T02:13:24;8.19;97.29
75088;HTU21D;63664;44.868;40.600;2022-10-26T02:16:00;8.16;97.26
75088;HTU21D;63664;44.868;40.600;2022-10-26T02:21:25;8.12;97.26
75088;HTU21D;63664;44.868;40.600;2022-10-26T02:23:55;8.09;97.31
75088;HTU21D;63664;44.868;40.600;2022-10-26T02:26:25;8.05;97.31
75088;HTU21D;63664;44.868;40.600;2022-10-26T02:28:56;8.03;97.33
75088;HTU21D;63664;44.868;40.600;2022-10-26T02:31:24;8.01;97.35
75088;HTU21D;63664;44.868;40.600;2022-10-26T02:33:53;7.99;97.37
75088;HTU21D;63664;44.868;40.600;2022-10-26T02:36:27;7.98;97.36
75088;HTU21D;63664;44.868;40.600;2022-10-26T02:38:56;7.98;97.33
75088;HTU21D;63664;44.868;40.600;2022-10-26T02:41:25;7.97;97.35
75088;HTU21D;63664;44.868;40.600;2022-10-26T02:44:01;7.96;97.33
75088;HTU21D;63664;44.868;40.600;2022-10-26T02:46:29;7.93;97.32
75088;HTU21D;63664;44.868;40.600;2022-10-26T02:48:58;7.91;97.33
75088;HTU21D;63664;44.868;40.600;2022-10-26T02:52:27;7.90;97.34
75088;HTU21D;63664;44.868;40.600;2022-10-26T02:57:11;7.81;97.37
75088;HTU21D;63664;44.868;40.600;2022-10-26T02:59:42;7.79;97.41
75088;HTU21D;63664;44.868;40.600;2022-10-26T03:02:10;7.81;97.41
75088;HTU21D;63664;44.868;40.600;2022-10-26T03:04:38;7.78;97.40
75088;HTU21D;63664;44.868;40.600;2022-10-26T03:07:04;7.79;97.39
75088;HTU21D;63664;44.868;40.600;2022-10-26T03:09:30;7.78;97.38
75088;HTU21D;63664;44.868;40.600;2022-10-26T03:11:59;7.77;97.36
75088;HTU21D;63664;44.868;40.600;2022-10-26T03:14:25;7.75;97.33
75088;HTU21D;63664;44.868;40.600;2022-10-26T03:16:51;7.74;97.36
75088;HTU21D;63664;44.868;40.600;2022-10-26T03:19:18;7.73;97.35
75088;HTU21D;63664;44.868;40.600;2022-10-26T03:21:44;7.71;97.32
75088;HTU21D;63664;44.868;40.600;2022-10-26T03:24:10;7.70;97.30
75088;HTU21D;63664;44.868;40.600;2022-10-26T03:26:36;7.68;97.29
75088;HTU21D;63664;44.868;40.600;2022-10-26T03:29:03;7.68;97.29
75088;HTU21D;63664;44.868;40.600;2022-10-26T03:31:29;7.68;97.31
75088;HTU21D;63664;44.868;40.600;2022-10-26T03:33:56;7.71;97.29
75088;HTU21D;63664;44.868;40.600;2022-10-26T03:36:22;7.71;97.27
75088;HTU21D;63664;44.868;40.600;2022-10-26T03:38:48;7.72;97.26
75088;HTU21D;63664;44.868;40.600;2022-10-26T03:41:14;7.74;97.26
75088;HTU21D;63664;44.868;40.600;2022-10-26T03:43:40;7.75;97.23
75088;HTU21D;63664;44.868;40.600;2022-10-26T03:46:09;7.78;97.24
75088;HTU21D;63664;44.868;40.600;2022-10-26T03:48:35;7.79;97.22
75088;HTU21D;63664;44.868;40.600;2022-10-26T03:51:01;7.79;97.22
75088;HTU21D;63664;44.868;40.600;2022-10-26T03:53:28;7.83;97.22
75088;HTU21D;63664;44.868;40.600;2022-10-26T03:55:54;7.85;97.21
75088;HTU21D;63664;44.868;40.600;2022-10-26T03:58:20;7.88;97.19
75088;HTU21D;63664;44.868;40.600;2022-10-26T04:00:47;7.88;97.17
75088;HTU21D;63664;44.868;40.600;2022-10-26T04:03:13;7.91;97.16
75088;HTU21D;63664;44.868;40.600;2022-10-26T04:05:39;7.93;97.16
75088;HTU21D;63664;44.868;40.600;2022-10-26T04:08:07;7.96;97.13
75088;HTU21D;63664;44.868;40.600;2022-10-26T04:10:33;7.99;97.10
75088;HTU21D;63664;44.868;40.600;2022-10-26T04:13:00;8.01;97.07
75088;HTU21D;63664;44.868;40.600;2022-10-26T04:15:27;8.03;97.06
75088;HTU21D;63664;44.868;40.600;2022-10-26T04:17:59;8.04;97.04
75088;HTU21D;63664;44.868;40.600;2022-10-26T04:20:26;8.08;96.99
75088;HTU21D;63664;44.868;40.600;2022-10-26T04:23:04;8.12;96.95
75088;HTU21D;63664;44.868;40.600;2022-10-26T04:25:32;8.15;96.92
75088;HTU21D;63664;44.868;40.600;2022-10-26T04:27:59;8.19;96.88
75088;HTU21D;63664;44.868;40.600;2022-10-26T04:30:26;8.22;96.84
75088;HTU21D;63664;44.868;40.600;2022-10-26T04:32:52;8.24;96.81
75088;HTU21D;63664;44.868;40.600;2022-10-26T04:35:18;8.28;96.78
75088;HTU21D;63664;44.868;40.600;2022-10-26T04:37:44;8.32;96.76
75088;HTU21D;63664;44.868;40.600;2022-10-26T04:40:11;8.35;96.73
75088;HTU21D;63664;44.868;40.600;2022-10-26T04:42:45;8.38;96.71
75088;HTU21D;63664;44.868;40.600;2022-10-26T04:45:13;8.39;96.68
75088;HTU21D;63664;44.868;40.600;2022-10-26T04:47:40;8.42;96.70
75088;HTU21D;63664;44.868;40.600;2022-10-26T04:50:09;8.44;96.71
75088;HTU21D;63664;44.868;40.600;2022-10-26T04:52:36;8.46;96.70
75088;HTU21D;63664;44.868;40.600;2022-10-26T04:55:03;8.48;96.69
75088;HTU21D;63664;44.868;40.600;2022-10-26T04:57:35;8.48;96.70
75088;HTU21D;63664;44.868;40.600;2022-10-26T05:00:02;8.50;96.70
75088;HTU21D;63664;44.868;40.600;2022-10-26T05:02:28;8.49;96.55
75088;HTU21D;63664;44.868;40.600;2022-10-26T05:04:55;8.50;96.62
75088;HTU21D;63664;44.868;40.600;2022-10-26T05:07:21;8.52;96.68
75088;HTU21D;63664;44.868;40.600;2022-10-26T05:09:47;8.56;96.66
75088;HTU21D;63664;44.868;40.600;2022-10-26T05:12:13;8.60;96.63
75088;HTU21D;63664;44.868;40.600;2022-10-26T05:14:40;8.65;96.62
75088;HTU21D;63664;44.868;40.600;2022-10-26T05:17:06;8.72;96.58
75088;HTU21D;63664;44.868;40.600;2022-10-26T05:19:32;8.80;96.52
75088;HTU21D;63664;44.868;40.600;2022-10-26T05:21:58;8.88;96.45
75088;HTU21D;63664;44.868;40.600;2022-10-26T05:24:27;8.95;96.37
75088;HTU21D;63664;44.868;40.600;2022-10-26T05:26:53;9.04;96.23
75088;HTU21D;63664;44.868;40.600;2022-10-26T05:29:20;9.15;96.06
75088;HTU21D;63664;44.868;40.600;2022-10-26T05:31:46;9.23;95.90
75088;HTU21D;63664;44.868;40.600;2022-10-26T05:34:14;9.32;95.72
75088;HTU21D;63664;44.868;40.600;2022-10-26T05:36:43;9.40;95.55
75088;HTU21D;63664;44.868;40.600;2022-10-26T05:39:09;9.49;95.43
75088;HTU21D;63664;44.868;40.600;2022-10-26T05:41:35;9.56;95.28
75088;HTU21D;63664;44.868;40.600;2022-10-26T05:44:04;9.67;95.14
75088;HTU21D;63664;44.868;40.600;2022-10-26T05:46:30;9.74;95.01
75088;HTU21D;63664;44.868;40.600;2022-10-26T05:48:59;9.82;94.84
75088;HTU21D;63664;44.868;40.600;2022-10-26T05:51:25;9.91;94.66
75088;HTU21D;63664;44.868;40.600;2022-10-26T05:53:51;9.99;94.49
75088;HTU21D;63664;44.868;40.600;2022-10-26T05:56:39;10.08;94.30
75088;HTU21D;63664;44.868;40.600;2022-10-26T05:59:14;10.18;94.07
75088;HTU21D;63664;44.868;40.600;2022-10-26T06:02:05;10.27;93.91
75088;HTU21D;63664;44.868;40.600;2022-10-26T06:04:43;10.38;93.65
75088;HTU21D;63664;44.868;40.600;2022-10-26T06:07:17;10.44;93.47
75088;HTU21D;63664;44.868;40.600;2022-10-26T06:09:48;10.51;93.34
75088;HTU21D;63664;44.868;40.600;2022-10-26T06:12:18;10.58;93.20
75088;HTU21D;63664;44.868;40.600;2022-10-26T06:14:44;10.65;93.03
75088;HTU21D;63664;44.868;40.600;2022-10-26T06:20:09;10.83;92.71
75088;HTU21D;63664;44.868;40.600;2022-10-26T06:23:16;10.97;92.49
75088;HTU21D;63664;44.868;40.600;2022-10-26T06:26:00;11.10;92.21
75088;HTU21D;63664;44.868;40.600;2022-10-26T06:28:42;11.23;92.04
75088;HTU21D;63664;44.868;40.600;2022-10-26T06:31:13;11.34;91.79
75088;HTU21D;63664;44.868;40.600;2022-10-26T06:33:40;11.46;91.49
75088;HTU21D;63664;44.868;40.600;2022-10-26T06:38:37;11.71;90.92
75088;HTU21D;63664;44.868;40.600;2022-10-26T06:41:05;11.83;90.66
75088;HTU21D;63664;44.868;40.600;2022-10-26T06:43:34;11.93;90.44
75088;HTU21D;63664;44.868;40.600;2022-10-26T06:48:47;12.18;89.98
75088;HTU21D;63664;44.868;40.600;2022-10-26T06:51:16;12.33;89.75
75088;HTU21D;63664;44.868;40.600;2022-10-26T06:54:05;12.49;89.50
75088;HTU21D;63664;44.868;40.600;2022-10-26T06:56:33;12.65;89.28
75088;HTU21D;63664;44.868;40.600;2022-10-26T06:59:08;12.75;88.86
75088;HTU21D;63664;44.868;40.600;2022-10-26T07:01:39;12.86;88.64
75088;HTU21D;63664;44.868;40.600;2022-10-26T07:04:08;12.96;88.40
75088;HTU21D;63664;44.868;40.600;2022-10-26T07:06:34;13.10;88.09
75088;HTU21D;63664;44.868;40.600;2022-10-26T07:09:00;13.24;87.65
75088;HTU21D;63664;44.868;40.600;2022-10-26T07:11:27;13.38;87.41
75088;HTU21D;63664;44.868;40.600;2022-10-26T07:13:53;13.50;87.09
75088;HTU21D;63664;44.868;40.600;2022-10-26T07:16:19;13.63;86.87
75088;HTU21D;63664;44.868;40.600;2022-10-26T07:18:47;13.77;86.74
75088;HTU21D;63664;44.868;40.600;2022-10-26T07:21:13;13.91;86.53
75088;HTU21D;63664;44.868;40.600;2022-10-26T07:23:42;14.05;86.35
75088;HTU21D;63664;44.868;40.600;2022-10-26T07:26:08;14.15;86.15
75088;HTU21D;63664;44.868;40.600;2022-10-26T07:28:35;14.28;86.06
75088;HTU21D;63664;44.868;40.600;2022-10-26T07:31:01;14.40;85.81
75088;HTU21D;63664;44.868;40.600;2022-10-26T07:33:27;14.48;85.59
75088;HTU21D;63664;44.868;40.600;2022-10-26T07:35:53;14.56;85.24
75088;HTU21D;63664;44.868;40.600;2022-10-26T07:38:21;14.62;85.07
75088;HTU21D;63664;44.868;40.600;2022-10-26T07:40:47;14.70;84.89
75088;HTU21D;63664;44.868;40.600;2022-10-26T07:43:15;14.83;84.76
75088;HTU21D;63664;44.868;40.600;2022-10-26T07:45:41;14.95;84.50
75088;HTU21D;63664;44.868;40.600;2022-10-26T07:48:10;15.08;84.16
75088;HTU21D;63664;44.868;40.600;2022-10-26T07:50:36;15.23;83.88
75088;HTU21D;63664;44.868;40.600;2022-10-26T07:53:02;15.36;83.50
75088;HTU21D;63664;44.868;40.600;2022-10-26T07:55:29;15.51;83.25
75088;HTU21D;63664;44.868;40.600;2022-10-26T07:57:55;15.66;83.07
75088;HTU21D;63664;44.868;40.600;2022-10-26T08:00:22;15.78;82.81
75088;HTU21D;63664;44.868;40.600;2022-10-26T08:02:48;15.90;82.61
75088;HTU21D;63664;44.868;40.600;2022-10-26T08:05:15;15.98;82.33
75088;HTU21D;63664;44.868;40.600;2022-10-26T08:07:45;16.10;82.12
75088;HTU21D;63664;44.868;40.600;2022-10-26T08:10:12;16.21;82.08
75088;HTU21D;63664;44.868;40.600;2022-10-26T08:12:40;16.34;81.90
75088;HTU21D;63664;44.868;40.600;2022-10-26T08:15:07;16.49;81.59
75088;HTU21D;63664;44.868;40.600;2022-10-26T08:17:34;16.63;81.18
75088;HTU21D;63664;44.868;40.600;2022-10-26T08:20:01;16.76;80.83
75088;HTU21D;63664;44.868;40.600;2022-10-26T08:22:31;16.92;80.31
75088;HTU21D;63664;44.868;40.600;2022-10-26T08:24:57;17.09;79.94
75088;HTU21D;63664;44.868;40.600;2022-10-26T08:27:24;17.19;79.40
75088;HTU21D;63664;44.868;40.600;2022-10-26T08:29:51;17.25;79.13
75088;HTU21D;63664;44.868;40.600;2022-10-26T08:32:17;17.34;79.02
75088;HTU21D;63664;44.868;40.600;2022-10-26T08:34:43;17.44;78.66
75088;HTU21D;63664;44.868;40.600;2022-10-26T08:37:09;17.50;78.05
75088;HTU21D;63664;44.868;40.600;2022-10-26T08:39:35;17.60;77.50
75088;HTU21D;63664;44.868;40.600;2022-10-26T08:42:29;17.74;76.86
75088;HTU21D;63664;44.868;40.600;2022-10-26T08:45:03;17.87;76.72
75088;HTU21D;63664;44.868;40.600;2022-10-26T08:47:41;17.90;76.37
75088;HTU21D;63664;44.868;40.600;2022-10-26T08:50:32;17.96;76.39
75088;HTU21D;63664;44.868;40.600;2022-10-26T08:53:04;17.92;76.24
75088;HTU21D;63664;44.868;40.600;2022-10-26T08:55:47;17.89;76.43
75088;HTU21D;63664;44.868;40.600;2022-10-26T08:58:21;17.92;76.52
75088;HTU21D;63664;44.868;40.600;2022-10-26T09:00:50;17.92;76.37
75088;HTU21D;63664;44.868;40.600;2022-10-26T09:03:18;17.93;76.16
75088;HTU21D;63664;44.868;40.600;2022-10-26T09:24:55;18.19;74.65
75088;HTU21D;63664;44.868;40.600;2022-10-26T09:27:29;18.24;74.29
75088;HTU21D;63664;44.868;40.600;2022-10-26T09:30:16;18.27;74.01
75088;HTU21D;63664;44.868;40.600;2022-10-26T09:32:48;18.33;74.03
75088;HTU21D;63664;44.868;40.600;2022-10-26T09:35:39;18.41;73.95
75088;HTU21D;63664;44.868;40.600;2022-10-26T09:38:33;18.52;73.70
75088;HTU21D;63664;44.868;40.600;2022-10-26T09:43:56;18.71;72.98
75088;HTU21D;63664;44.868;40.600;2022-10-26T09:46:30;18.78;72.74
75088;HTU21D;63664;44.868;40.600;2022-10-26T09:49:00;18.85;72.29
75088;HTU21D;63664;44.868;40.600;2022-10-26T09:51:36;18.92;71.84
75088;HTU21D;63664;44.868;40.600;2022-10-26T09:54:16;18.95;71.60
75088;HTU21D;63664;44.868;40.600;2022-10-26T09:56:45;18.98;71.44
75088;HTU21D;63664;44.868;40.600;2022-10-26T09:59:13;19.00;71.16
75088;HTU21D;63664;44.868;40.600;2022-10-26T10:01:40;18.97;71.03
75088;HTU21D;63664;44.868;40.600;2022-10-26T10:04:18;19.00;70.81
75088;HTU21D;63664;44.868;40.600;2022-10-26T10:06:51;19.03;70.56
75088;HTU21D;63664;44.868;40.600;2022-10-26T10:09:20;19.05;70.66
75088;HTU21D;63664;44.868;40.600;2022-10-26T10:11:53;19.05;70.53
75088;HTU21D;63664;44.868;40.600;2022-10-26T10:14:33;19.07;70.26
75088;HTU21D;63664;44.868;40.600;2022-10-26T10:17:15;19.07;70.14
75088;HTU21D;63664;44.868;40.600;2022-10-26T10:19:44;19.07;70.18
75088;HTU21D;63664;44.868;40.600;2022-10-26T10:22:19;19.06;69.86
75088;HTU21D;63664;44.868;40.600;2022-10-26T10:25:00;19.05;69.71
75088;HTU21D;63664;44.868;40.600;2022-10-26T10:27:28;19.03;69.83
75088;HTU21D;63664;44.868;40.600;2022-10-26T10:29:57;19.03;69.70
75088;HTU21D;63664;44.868;40.600;2022-10-26T10:32:29;19.01;69.42
75088;HTU21D;63664;44.868;40.600;2022-10-26T10:34:59;19.02;69.35
75088;HTU21D;63664;44.868;40.600;2022-10-26T10:40:00;19.11;68.89
75088;HTU21D;63664;44.868;40.600;2022-10-26T10:42:34;19.06;68.90
75088;HTU21D;63664;44.868;40.600;2022-10-26T10:45:02;19.02;69.13
75088;HTU21D;63664;44.868;40.600;2022-10-26T10:47:34;19.00;68.82
75088;HTU21D;63664;44.868;40.600;2022-10-26T10:50:06;19.00;69.08
75088;HTU21D;63664;44.868;40.600;2022-10-26T10:52:36;19.00;69.29
75088;HTU21D;63664;44.868;40.600;2022-10-26T10:55:18;19.01;69.46
75088;HTU21D;63664;44.868;40.600;2022-10-26T10:58:01;19.02;69.52
75088;HTU21D;63664;44.868;40.600;2022-10-26T11:00:36;19.01;69.70
75088;HTU21D;63664;44.868;40.600;2022-10-26T11:06:22;18.98;70.25
75088;HTU21D;63664;44.868;40.600;2022-10-26T11:09:04;18.86;70.68
75088;HTU21D;63664;44.868;40.600;2022-10-26T11:11:54;18.80;71.07
75088;HTU21D;63664;44.868;40.600;2022-10-26T11:14:54;18.76;71.43
75088;HTU21D;63664;44.868;40.600;2022-10-26T11:17:21;18.68;71.76
75088;HTU21D;63664;44.868;40.600;2022-10-26T11:20:00;18.58;71.93
75088;HTU21D;63664;44.868;40.600;2022-10-26T11:22:33;18.50;71.99
75088;HTU21D;63664;44.868;40.600;2022-10-26T11:25:05;18.43;72.19
75088;HTU21D;63664;44.868;40.600;2022-10-26T11:27:59;18.32;72.57
75088;HTU21D;63664;44.868;40.600;2022-10-26T11:30:29;18.23;72.82
75088;HTU21D;63664;44.868;40.600;2022-10-26T11:41:24;18.14;73.23
75088;HTU21D;63664;44.868;40.600;2022-10-26T11:46:50;18.07;73.63
75088;HTU21D;63664;44.868;40.600;2022-10-26T11:49:36;18.04;73.77
75088;HTU21D;63664;44.868;40.600;2022-10-26T11:54:49;17.97;73.92
75088;HTU21D;63664;44.868;40.600;2022-10-26T11:57:21;17.94;74.02
75088;HTU21D;63664;44.868;40.600;2022-10-26T12:00:00;17.90;74.07
75088;HTU21D;63664;44.868;40.600;2022-10-26T12:02:30;17.93;74.25
75088;HTU21D;63664;44.868;40.600;2022-10-26T12:14:00;17.72;74.52
75088;HTU21D;63664;44.868;40.600;2022-10-26T12:19:54;17.62;74.64
75088;HTU21D;63664;44.868;40.600;2022-10-26T12:22:36;17.52;74.73
75088;HTU21D;63664;44.868;40.600;2022-10-26T12:25:19;17.47;74.95
75088;HTU21D;63664;44.868;40.600;2022-10-26T12:35:36;17.34;75.03
75088;HTU21D;63664;44.868;40.600;2022-10-26T12:38:54;17.32;75.22
75088;HTU21D;63664;44.868;40.600;2022-10-26T12:41:21;17.26;75.57
75088;HTU21D;63664;44.868;40.600;2022-10-26T12:43:49;17.22;75.75
75088;HTU21D;63664;44.868;40.600;2022-10-26T12:48:49;17.18;76.25
75088;HTU21D;63664;44.868;40.600;2022-10-26T12:56:49;17.10;76.60
75088;HTU21D;63664;44.868;40.600;2022-10-26T12:59:45;17.07;76.72
75088;HTU21D;63664;44.868;40.600;2022-10-26T13:02:50;17.02;77.14
75088;HTU21D;63664;44.868;40.600;2022-10-26T13:08:09;16.99;77.52
75088;HTU21D;63664;44.868;40.600;2022-10-26T13:10:43;16.92;77.99
75088;HTU21D;63664;44.868;40.600;2022-10-26T13:13:22;16.87;78.30
75088;HTU21D;63664;44.868;40.600;2022-10-26T13:15:54;16.84;78.56
75088;HTU21D;63664;44.868;40.600;2022-10-26T13:18:21;16.82;78.64
75088;HTU21D;63664;44.868;40.600;2022-10-26T13:21:11;16.78;78.86
75088;HTU21D;63664;44.868;40.600;2022-10-26T13:23:42;16.74;78.90
75088;HTU21D;63664;44.868;40.600;2022-10-26T13:26:18;16.67;79.18
75088;HTU21D;63664;44.868;40.600;2022-10-26T13:28:51;16.60;79.40
75088;HTU21D;63664;44.868;40.600;2022-10-26T13:34:03;16.56;79.78
75088;HTU21D;63664;44.868;40.600;2022-10-26T13:36:35;16.47;79.98
75088;HTU21D;63664;44.868;40.600;2022-10-26T13:39:23;16.35;80.56
75088;HTU21D;63664;44.868;40.600;2022-10-26T13:41:52;16.29;80.75
75088;HTU21D;63664;44.868;40.600;2022-10-26T13:44:41;16.21;81.10
75088;HTU21D;63664;44.868;40.600;2022-10-26T13:47:16;16.18;81.20
75088;HTU21D;63664;44.868;40.600;2022-10-26T13:49:51;16.13;81.36
75088;HTU21D;63664;44.868;40.600;2022-10-26T13:52:31;16.07;81.59
75088;HTU21D;63664;44.868;40.600;2022-10-26T13:55:14;16.03;81.83
75088;HTU21D;63664;44.868;40.600;2022-10-26T13:58:08;15.98;82.04
75088;HTU21D;63664;44.868;40.600;2022-10-26T14:00:36;15.92;82.13
75088;HTU21D;63664;44.868;40.600;2022-10-26T14:03:18;15.86;82.60
75088;HTU21D;63664;44.868;40.600;2022-10-26T14:05:49;15.80;82.73
75088;HTU21D;63664;44.868;40.600;2022-10-26T14:08:21;15.74;83.04
75088;HTU21D;63664;44.868;40.600;2022-10-26T14:10:54;15.68;83.36
75088;HTU21D;63664;44.868;40.600;2022-10-26T14:13:24;15.62;83.56
75088;HTU21D;63664;44.868;40.600;2022-10-26T14:15:52;15.59;83.74
75088;HTU21D;63664;44.868;40.600;2022-10-26T14:18:25;15.54;83.90
75088;HTU21D;63664;44.868;40.600;2022-10-26T14:21:14;15.51;84.13
75088;HTU21D;63664;44.868;40.600;2022-10-26T14:23:52;15.43;84.22
75088;HTU21D;63664;44.868;40.600;2022-10-26T14:26:36;15.34;84.46
75088;HTU21D;63664;44.868;40.600;2022-10-26T14:29:15;15.30;84.68
75088;HTU21D;63664;44.868;40.600;2022-10-26T14:31:42;15.26;84.73
75088;HTU21D;63664;44.868;40.600;2022-10-26T14:34:10;15.19;85.06
75088;HTU21D;63664;44.868;40.600;2022-10-26T14:36:58;15.13;85.40
75088;HTU21D;63664;44.868;40.600;2022-10-26T14:42:14;15.01;85.77
75088;HTU21D;63664;44.868;40.600;2022-10-26T14:44:42;14.96;85.57
75088;HTU21D;63664;44.868;40.600;2022-10-26T14:47:28;14.85;85.84
75088;HTU21D;63664;44.868;40.600;2022-10-26T14:49:55;14.78;86.10
75088;HTU21D;63664;44.868;40.600;2022-10-26T14:52:27;14.72;86.45
75088;HTU21D;63664;44.868;40.600;2022-10-26T14:55:09;14.68;86.75
75088;HTU21D;63664;44.868;40.600;2022-10-26T14:57:38;14.65;86.80
75088;HTU21D;63664;44.868;40.600;2022-10-26T15:00:24;14.59;87.04
75088;HTU21D;63664;44.868;40.600;2022-10-26T15:02:57;14.55;87.15
75088;HTU21D;63664;44.868;40.600;2022-10-26T15:05:25;14.52;87.25
75088;HTU21D;63664;44.868;40.600;2022-10-26T15:07:54;14.47;87.51
75088;HTU21D;63664;44.868;40.600;2022-10-26T15:13:19;14.38;87.84
75088;HTU21D;63664;44.868;40.600;2022-10-26T15:15:48;14.36;87.93
75088;HTU21D;63664;44.868;40.600;2022-10-26T15:20:46;14.25;88.41
75088;HTU21D;63664;44.868;40.600;2022-10-26T15:23:14;14.21;88.57
75088;HTU21D;63664;44.868;40.600;2022-10-26T15:25:51;14.15;88.89
75088;HTU21D;63664;44.868;40.600;2022-10-26T15:28:38;14.11;89.06
75088;HTU21D;63664;44.868;40.600;2022-10-26T15:31:06;14.06;89.04
75088;HTU21D;63664;44.868;40.600;2022-10-26T15:33:33;14.01;89.22
75088;HTU21D;63664;44.868;40.600;2022-10-26T15:38:36;13.89;89.44
75088;HTU21D;63664;44.868;40.600;2022-10-26T15:41:03;13.84;89.52
75088;HTU21D;63664;44.868;40.600;2022-10-26T15:43:32;13.79;89.64
75088;HTU21D;63664;44.868;40.600;2022-10-26T15:45:58;13.76;89.73
75088;HTU21D;63664;44.868;40.600;2022-10-26T15:48:29;13.70;89.90
75088;HTU21D;63664;44.868;40.600;2022-10-26T15:50:59;13.65;90.02
75088;HTU21D;63664;44.868;40.600;2022-10-26T15:53:26;13.59;90.23
75088;HTU21D;63664;44.868;40.600;2022-10-26T15:55:54;13.55;90.41
75088;HTU21D;63664;44.868;40.600;2022-10-26T15:58:22;13.50;90.57
75088;HTU21D;63664;44.868;40.600;2022-10-26T16:00:49;13.41;90.79
75088;HTU21D;63664;44.868;40.600;2022-10-26T16:03:20;13.36;91.02
75088;HTU21D;63664;44.868;40.600;2022-10-26T16:05:56;13.34;91.12
75088;HTU21D;63664;44.868;40.600;2022-10-26T16:08:26;13.31;91.13
75088;HTU21D;63664;44.868;40.600;2022-10-26T16:10:54;13.29;91.18
75088;HTU21D;63664;44.868;40.600;2022-10-26T16:13:20;13.24;91.31
75088;HTU21D;63664;44.868;40.600;2022-10-26T16:15:47;13.21;91.40
75088;HTU21D;63664;44.868;40.600;2022-10-26T16:18:13;13.17;91.45
75088;HTU21D;63664;44.868;40.600;2022-10-26T16:20:40;13.12;91.47
75088;HTU21D;63664;44.868;40.600;2022-10-26T16:23:09;13.08;91.51
75088;HTU21D;63664;44.868;40.600;2022-10-26T16:25:42;13.02;91.75
75088;HTU21D;63664;44.868;40.600;2022-10-26T16:28:14;12.96;91.88
75088;HTU21D;63664;44.868;40.600;2022-10-26T16:30:42;12.94;91.91
75088;HTU21D;63664;44.868;40.600;2022-10-26T16:33:08;12.88;91.95
75088;HTU21D;63664;44.868;40.600;2022-10-26T16:35:35;12.82;92.06
75088;HTU21D;63664;44.868;40.600;2022-10-26T16:38:01;12.79;92.17
75088;HTU21D;63664;44.868;40.600;2022-10-26T16:40:29;12.75;92.21
75088;HTU21D;63664;44.868;40.600;2022-10-26T16:42:56;12.71;92.22
75088;HTU21D;63664;44.868;40.600;2022-10-26T16:45:22;12.65;92.34
75088;HTU21D;63664;44.868;40.600;2022-10-26T16:47:48;12.61;92.45
75088;HTU21D;63664;44.868;40.600;2022-10-26T16:50:14;12.55;92.56
75088;HTU21D;63664;44.868;40.600;2022-10-26T16:52:41;12.49;92.66
75088;HTU21D;63664;44.868;40.600;2022-10-26T16:55:08;12.45;92.75
75088;HTU21D;63664;44.868;40.600;2022-10-26T16:57:35;12.41;92.86
75088;HTU21D;63664;44.868;40.600;2022-10-26T17:00:02;12.37;92.94
75088;HTU21D;63664;44.868;40.600;2022-10-26T17:02:28;12.36;92.97
75088;HTU21D;63664;44.868;40.600;2022-10-26T17:04:55;12.32;93.04
75088;HTU21D;63664;44.868;40.600;2022-10-26T17:07:21;12.29;93.10
75088;HTU21D;63664;44.868;40.600;2022-10-26T17:09:47;12.22;93.17
75088;HTU21D;63664;44.868;40.600;2022-10-26T17:12:13;12.18;93.25
75088;HTU21D;63664;44.868;40.600;2022-10-26T17:14:40;12.17;93.31
75088;HTU21D;63664;44.868;40.600;2022-10-26T17:17:09;12.14;93.39
75088;HTU21D;63664;44.868;40.600;2022-10-26T17:19:35;12.11;93.40
75088;HTU21D;63664;44.868;40.600;2022-10-26T17:22:02;12.07;93.43
75088;HTU21D;63664;44.868;40.600;2022-10-26T17:24:28;12.03;93.47
75088;HTU21D;63664;44.868;40.600;2022-10-26T17:26:55;12.01;93.55
75088;HTU21D;63664;44.868;40.600;2022-10-26T17:29:22;11.99;93.61
75088;HTU21D;63664;44.868;40.600;2022-10-26T17:31:48;11.99;93.66
75088;HTU21D;63664;44.868;40.600;2022-10-26T17:34:14;11.96;93.70
75088;HTU21D;63664;44.868;40.600;2022-10-26T17:36:40;11.96;93.74
75088;HTU21D;63664;44.868;40.600;2022-10-26T17:39:09;11.92;93.78
75088;HTU21D;63664;44.868;40.600;2022-10-26T17:41:35;11.91;93.84
75088;HTU21D;63664;44.868;40.600;2022-10-26T17:44:02;11.91;93.91